createdAt,value
2023-12-11T00:03:47.580Z,9.13
2023-12-11T00:08:52.919Z,9.14
2023-12-11T00:14:02.664Z,9.19
2023-12-11T00:19:10.090Z,9.21
2023-12-11T00:24:16.843Z,9.24
2023-12-11T00:29:23.882Z,9.23
2023-12-11T00:34:31.324Z,9.24
2023-12-11T00:39:37.472Z,9.20
2023-12-11T00:44:46.210Z,9.15
2023-12-11T00:49:56.599Z,9.12
2023-12-11T00:55:02.953Z,9.16
2023-12-11T01:00:16.561Z,9.22
2023-12-11T01:05:23.575Z,9.26
2023-12-11T01:10:30.093Z,9.21
2023-12-11T01:15:39.374Z,9.30
2023-12-11T01:20:45.444Z,9.39
2023-12-11T01:25:50.739Z,9.49
2023-12-11T01:30:56.633Z,9.55
2023-12-11T01:36:03.691Z,9.46
2023-12-11T01:41:08.521Z,9.38
2023-12-11T01:46:16.916Z,9.32
2023-12-11T01:51:27.478Z,9.29
2023-12-11T01:56:38.330Z,9.25
2023-12-11T02:01:47.877Z,9.19
2023-12-11T02:07:02.906Z,9.18
2023-12-11T02:12:08.217Z,9.18
2023-12-11T02:17:13.126Z,9.23
2023-12-11T02:22:23.621Z,9.24
2023-12-11T02:27:33.076Z,9.29
2023-12-11T02:32:38.329Z,9.32
2023-12-11T02:37:43.126Z,9.40
2023-12-11T02:42:54.112Z,9.43
2023-12-11T02:48:05.878Z,9.43
2023-12-11T02:53:11.457Z,9.42
2023-12-11T02:58:21.893Z,9.47
2023-12-11T03:03:26.646Z,9.44
2023-12-11T03:08:31.517Z,9.44
2023-12-11T03:13:38.363Z,9.45
2023-12-11T03:18:44.443Z,9.44
2023-12-11T03:23:49.900Z,9.46
2023-12-11T03:28:56.844Z,9.46
2023-12-11T03:34:04.126Z,9.52
2023-12-11T03:39:09.261Z,9.53
2023-12-11T03:44:15.668Z,9.70
2023-12-11T03:49:23.517Z,9.86
2023-12-11T03:54:30.152Z,9.97
2023-12-11T03:59:38.667Z,10.03
2023-12-11T04:04:44.090Z,10.11
2023-12-11T04:09:51.641Z,10.16
2023-12-11T04:14:58.321Z,10.13
2023-12-11T04:20:03.574Z,10.09
2023-12-11T04:25:08.905Z,10.01
2023-12-11T04:30:16.852Z,10.12
2023-12-11T04:35:26.618Z,10.06
2023-12-11T04:40:35.171Z,10.01
2023-12-11T04:45:43.346Z,9.96
2023-12-11T04:50:48.491Z,9.90
2023-12-11T04:55:58.694Z,9.86
2023-12-11T05:01:16.394Z,9.84
2023-12-11T05:06:23.394Z,9.82
2023-12-11T05:11:28.395Z,9.82
2023-12-11T05:16:38.118Z,9.79
2023-12-11T05:21:46.633Z,9.76
2023-12-11T05:26:52.639Z,9.71
2023-12-11T05:32:00.277Z,9.74
2023-12-11T05:37:05.570Z,9.93
2023-12-11T05:42:10.864Z,10.02
2023-12-11T05:47:18.182Z,10.06
2023-12-11T05:52:27.221Z,10.17
2023-12-11T05:57:32.278Z,10.24
2023-12-11T06:02:41.560Z,10.35
2023-12-11T06:07:48.968Z,10.32
2023-12-11T06:12:54.632Z,10.07
2023-12-11T06:18:04.672Z,9.99
2023-12-11T06:23:09.945Z,9.95
2023-12-11T06:28:14.470Z,9.86
2023-12-11T06:33:22.396Z,9.85
2023-12-11T06:38:29.925Z,9.83
2023-12-11T06:43:37.228Z,9.82
2023-12-11T06:48:46.897Z,9.86
2023-12-11T06:53:51.707Z,9.84
2023-12-11T06:58:58.130Z,9.82
2023-12-11T07:04:21.304Z,9.81
2023-12-11T07:09:27.786Z,9.75
2023-12-11T07:14:32.112Z,9.78
2023-12-11T07:19:40.275Z,9.71
2023-12-11T07:24:45.548Z,9.66
2023-12-11T07:29:52.799Z,9.66
2023-12-11T07:35:00.095Z,9.64
2023-12-11T07:40:07.849Z,9.68
2023-12-11T07:45:14.782Z,9.82
2023-12-11T07:50:43.870Z,9.92
2023-12-11T07:55:49.177Z,9.97
2023-12-11T08:00:58.840Z,10.06
2023-12-11T08:06:06.120Z,10.17
2023-12-11T08:11:19.324Z,10.32
2023-12-11T08:16:26.084Z,10.40
2023-12-11T08:21:35.785Z,10.46
2023-12-11T08:26:45.441Z,10.45
2023-12-11T08:31:51.185Z,10.49
2023-12-11T08:37:01.320Z,10.50
2023-12-11T08:42:06.695Z,10.57
2023-12-11T08:47:12.618Z,10.64
2023-12-11T08:52:30.023Z,10.69
2023-12-11T08:57:35.010Z,10.76
2023-12-11T09:02:49.001Z,10.80
2023-12-11T09:07:57.399Z,10.85
2023-12-11T09:13:02.137Z,10.83
2023-12-11T09:18:09.743Z,10.85
2023-12-11T09:23:17.013Z,10.84
2023-12-11T09:28:23.888Z,10.89
2023-12-11T09:33:29.620Z,10.94
2023-12-11T09:38:40.093Z,11.04
2023-12-11T09:43:45.568Z,11.09
2023-12-11T09:48:52.851Z,11.17
2023-12-11T09:54:01.433Z,11.27
2023-12-11T09:59:11.266Z,11.29
2023-12-11T10:04:15.986Z,11.39
2023-12-11T10:09:34.285Z,11.59
2023-12-11T10:14:40.463Z,11.61
2023-12-11T10:19:45.323Z,11.70
2023-12-11T10:24:54.743Z,11.80
2023-12-11T10:30:16.773Z,11.88
2023-12-11T10:35:27.898Z,11.99
2023-12-11T10:40:51.335Z,12.07
2023-12-11T10:45:56.426Z,12.10
2023-12-11T10:51:01.750Z,12.05
2023-12-11T10:56:11.300Z,12.09
2023-12-11T11:01:18.870Z,12.17
2023-12-11T11:06:25.725Z,12.18
2023-12-11T11:11:44.933Z,12.29
2023-12-11T11:17:00.483Z,12.32
2023-12-11T11:22:31.034Z,12.22
2023-12-11T11:27:47.215Z,12.16
2023-12-11T11:32:59.990Z,12.23
2023-12-11T11:38:07.758Z,12.35
2023-12-11T11:43:16.937Z,12.51
2023-12-11T11:48:22.992Z,12.61
2023-12-11T11:53:37.765Z,12.79
2023-12-11T11:58:48.322Z,12.95
2023-12-11T12:03:53.544Z,12.98
2023-12-11T12:09:00.436Z,13.03
2023-12-11T12:14:15.671Z,13.04
2023-12-11T12:19:33.079Z,13.02
2023-12-11T12:24:44.972Z,13.00
2023-12-11T12:29:52.918Z,13.01
2023-12-11T12:35:14.458Z,13.04
2023-12-11T12:40:22.805Z,13.03
2023-12-11T12:45:37.172Z,13.05
2023-12-11T12:50:48.303Z,13.05
2023-12-11T12:55:58.704Z,13.05
2023-12-11T13:01:05.518Z,13.02
2023-12-11T13:06:14.773Z,13.06
2023-12-11T13:11:19.604Z,13.10
2023-12-11T13:16:39.230Z,13.13
2023-12-11T13:21:47.955Z,13.14
2023-12-11T13:26:55.888Z,13.04
2023-12-11T13:32:02.110Z,13.01
2023-12-11T13:37:08.968Z,12.96
2023-12-11T13:42:15.624Z,12.91
2023-12-11T13:47:24.474Z,12.90
2023-12-11T13:52:29.685Z,12.87
2023-12-11T13:57:45.305Z,12.84
2023-12-11T14:03:03.736Z,12.83
2023-12-11T14:08:11.201Z,12.77
2023-12-11T14:13:19.872Z,12.72
2023-12-11T14:18:26.772Z,12.69
2023-12-11T14:23:33.429Z,12.67
2023-12-11T14:28:42.471Z,12.65
2023-12-11T14:33:54.639Z,12.61
2023-12-11T14:39:03.019Z,12.57
2023-12-11T14:44:12.053Z,12.53
2023-12-11T14:49:21.703Z,12.47
2023-12-11T14:54:28.091Z,12.50
2023-12-11T14:59:35.802Z,12.43
2023-12-11T15:04:42.537Z,12.41
2023-12-11T15:09:50.658Z,12.37
2023-12-11T15:14:59.792Z,12.35
2023-12-11T15:20:15.191Z,12.32
2023-12-11T15:25:20.829Z,12.30
2023-12-11T15:30:26.303Z,12.28
2023-12-11T15:35:34.514Z,12.23
2023-12-11T15:40:43.312Z,12.19
2023-12-11T15:45:48.941Z,12.14
2023-12-11T15:50:57.207Z,12.13
2023-12-11T15:56:03.690Z,12.07
2023-12-11T16:01:11.057Z,12.05
2023-12-11T16:06:21.223Z,12.03
2023-12-11T16:11:32.996Z,11.98
2023-12-11T16:16:40.723Z,11.93
2023-12-11T16:21:47.940Z,11.90
2023-12-11T16:26:53.733Z,11.86
2023-12-11T16:32:00.011Z,11.83
2023-12-11T16:37:08.883Z,11.82
2023-12-11T16:42:16.418Z,11.75
2023-12-11T16:47:23.877Z,11.71
2023-12-11T16:52:30.693Z,11.66
2023-12-11T16:57:36.747Z,11.65
2023-12-11T17:02:42.827Z,11.59
2023-12-11T17:07:53.404Z,11.55
2023-12-11T17:13:02.073Z,11.53
2023-12-11T17:18:11.508Z,11.48
2023-12-11T17:23:19.035Z,11.49
2023-12-11T17:28:25.991Z,11.50
2023-12-11T17:33:30.771Z,11.51
2023-12-11T17:38:42.753Z,11.29
2023-12-11T17:43:48.720Z,11.23
2023-12-11T17:49:05.829Z,11.20
2023-12-11T17:54:17.286Z,11.10
2023-12-11T17:59:25.526Z,10.99
2023-12-11T18:04:33.261Z,10.99
2023-12-11T18:09:41.397Z,11.03
2023-12-11T18:14:48.034Z,11.08
2023-12-11T18:19:52.449Z,11.13
2023-12-11T18:25:01.491Z,11.13
2023-12-11T18:30:10.126Z,11.17
2023-12-11T18:35:22.681Z,11.17
2023-12-11T18:40:39.126Z,11.19
2023-12-11T18:45:45.352Z,11.12
2023-12-11T18:50:50.353Z,10.92
2023-12-11T18:56:01.909Z,10.82
2023-12-11T19:01:09.956Z,10.73
2023-12-11T19:06:15.340Z,10.67
2023-12-11T19:11:22.719Z,10.59
2023-12-11T19:16:31.915Z,10.48
2023-12-11T19:21:42.112Z,10.39
2023-12-11T19:26:48.683Z,10.28
2023-12-11T19:31:55.467Z,10.22
2023-12-11T19:37:10.641Z,10.20
2023-12-11T19:42:22.915Z,10.24
2023-12-11T19:47:36.660Z,10.34
2023-12-11T19:52:51.728Z,10.33
2023-12-11T19:58:02.624Z,10.37
2023-12-11T20:03:08.974Z,10.35
2023-12-11T20:08:13.642Z,10.24
2023-12-11T20:13:23.348Z,10.13
2023-12-11T20:18:34.047Z,10.09
2023-12-11T20:23:41.719Z,10.14
2023-12-11T20:28:49.519Z,10.21
2023-12-11T20:34:07.762Z,10.25
2023-12-11T20:39:22.354Z,10.26
2023-12-11T20:44:30.129Z,10.28
2023-12-11T20:49:37.451Z,10.28
2023-12-11T20:54:44.303Z,10.32
2023-12-11T20:59:52.012Z,10.30
2023-12-11T21:04:59.984Z,10.31
2023-12-11T21:10:06.305Z,10.29
2023-12-11T21:15:17.194Z,10.28
2023-12-11T21:20:23.135Z,10.30
2023-12-11T21:25:28.892Z,10.26
2023-12-11T21:30:49.557Z,10.29
2023-12-11T21:35:59.524Z,10.27
2023-12-11T21:41:04.877Z,10.20
2023-12-11T21:46:17.932Z,10.14
2023-12-11T21:51:24.305Z,10.09
2023-12-11T21:56:36.268Z,10.03
2023-12-11T22:01:46.539Z,9.96
2023-12-11T22:06:51.459Z,9.93
2023-12-11T22:12:03.799Z,9.90
2023-12-11T22:17:11.688Z,9.73
2023-12-11T22:22:20.145Z,9.63
2023-12-11T22:27:24.787Z,9.57
2023-12-11T22:32:32.423Z,9.53
2023-12-11T22:37:36.424Z,9.51
2023-12-11T22:42:52.039Z,9.38
2023-12-11T22:48:01.036Z,9.27
2023-12-11T22:53:08.273Z,9.18
2023-12-11T22:58:16.875Z,9.11
2023-12-11T23:03:27.311Z,9.00
2023-12-11T23:08:32.331Z,8.87
2023-12-11T23:13:39.950Z,8.78
2023-12-11T23:19:00.501Z,8.68
2023-12-11T23:24:07.155Z,8.58
2023-12-11T23:29:12.982Z,8.51
2023-12-11T23:34:20.178Z,8.45
2023-12-11T23:39:26.807Z,8.38
2023-12-11T23:44:32.362Z,8.34
2023-12-11T23:49:39.770Z,8.29
2023-12-11T23:54:45.967Z,8.24
